Terminal Aerodrome Forecast
Issued by NWS

Home | Current Version | Previous Version | Text Only | Print | Product List | Glossary On
Versions: 1 2 3 4 5 6 7 8 9 10 11 12 13 14 15
000
FTUS43 KAPX 251730
TAFAPN
TAF
KAPN 251730Z 2518/2618 09006KT P6SM FEW250
     FM260000 11006KT P6SM SCT250
     FM260500 VRB03KT P6SM SHRA OVC070
     FM261400 17007KT P6SM BKN070
     FM261600 18007KT P6SM BKN150=

USA.gov is the U.S. government's official web portal to all federal, state and local government web resources and services.